createdAt,value
2017-12-27T00:00:25.854Z,4.65
2017-12-27T00:01:25.564Z,4.65
2017-12-27T00:02:25.415Z,4.65
2017-12-27T00:03:25.511Z,4.65
2017-12-27T00:04:25.484Z,4.67
2017-12-27T00:05:25.493Z,4.66
2017-12-27T00:06:25.473Z,4.67
2017-12-27T00:07:25.565Z,4.66
2017-12-27T00:08:25.584Z,4.65
2017-12-27T00:09:26.347Z,4.66
2017-12-27T00:10:25.472Z,4.66
2017-12-27T00:11:25.404Z,4.66
2017-12-27T00:12:25.382Z,4.66
2017-12-27T00:13:25.549Z,4.65
2017-12-27T00:14:25.574Z,4.64
2017-12-27T00:15:25.610Z,4.67
2017-12-27T00:16:25.522Z,4.65
2017-12-27T00:17:25.405Z,4.65
2017-12-27T00:18:25.348Z,4.66
2017-12-27T00:19:25.496Z,4.66
2017-12-27T00:20:25.331Z,4.66
2017-12-27T00:21:25.689Z,4.66
2017-12-27T00:22:25.426Z,4.67
2017-12-27T00:23:25.451Z,4.67
2017-12-27T00:24:25.479Z,4.67
2017-12-27T00:25:25.601Z,4.67
2017-12-27T00:26:25.823Z,4.68
2017-12-27T00:27:25.528Z,4.66
2017-12-27T00:28:25.635Z,4.66
2017-12-27T00:29:25.566Z,4.67
2017-12-27T00:30:25.548Z,4.67
2017-12-27T00:31:25.584Z,4.68
2017-12-27T00:32:25.372Z,4.67
2017-12-27T00:33:25.443Z,4.68
2017-12-27T00:34:25.392Z,4.67
2017-12-27T00:35:25.531Z,4.66
2017-12-27T00:36:25.598Z,4.68
2017-12-27T00:37:25.602Z,4.67
2017-12-27T00:38:25.401Z,4.67
2017-12-27T00:39:35.664Z,4.68
2017-12-27T00:40:25.754Z,4.68
2017-12-27T00:41:25.505Z,4.68
2017-12-27T00:42:25.947Z,4.68
2017-12-27T00:43:33.550Z,4.68
2017-12-27T00:44:25.883Z,4.68
2017-12-27T00:45:27.737Z,4.67
2017-12-27T00:46:26.341Z,4.68
2017-12-27T00:47:25.490Z,4.67
2017-12-27T00:48:25.701Z,4.69
2017-12-27T00:49:25.735Z,4.67
2017-12-27T00:50:25.454Z,4.68
2017-12-27T00:51:25.502Z,4.69
2017-12-27T00:52:25.520Z,4.68
2017-12-27T00:53:30.188Z,4.69
2017-12-27T00:54:25.754Z,4.68
2017-12-27T00:55:25.643Z,4.67
2017-12-27T00:56:25.645Z,4.67
2017-12-27T00:57:25.514Z,4.68
2017-12-27T00:58:25.898Z,4.68
2017-12-27T00:59:26.946Z,4.7
2017-12-27T01:00:25.637Z,4.7
2017-12-27T01:01:26.081Z,4.68
2017-12-27T01:02:27.009Z,4.69
2017-12-27T01:03:38.652Z,4.69
2017-12-27T01:04:26.215Z,4.69
2017-12-27T01:05:26.197Z,4.69
2017-12-27T01:06:30.788Z,4.68
2017-12-27T01:07:25.414Z,4.69
2017-12-27T01:08:37.846Z,4.69
2017-12-27T01:09:26.740Z,4.68
2017-12-27T01:10:26.484Z,4.67
2017-12-27T01:11:25.606Z,4.67
2017-12-27T01:12:26.008Z,4.68
2017-12-27T01:13:26.714Z,4.68
2017-12-27T01:14:26.756Z,4.69
2017-12-27T01:15:25.972Z,4.69
2017-12-27T01:16:26.736Z,4.67
2017-12-27T01:17:26.823Z,4.7
2017-12-27T01:18:29.320Z,4.67
2017-12-27T01:19:26.966Z,4.67
2017-12-27T01:20:25.610Z,4.66
2017-12-27T01:21:25.498Z,4.67
2017-12-27T01:22:25.673Z,4.67
2017-12-27T01:23:26.079Z,4.68
2017-12-27T01:24:25.546Z,4.69
2017-12-27T01:25:25.635Z,4.7
2017-12-27T01:26:25.627Z,4.7
2017-12-27T01:27:25.522Z,4.67
2017-12-27T01:28:25.847Z,4.68
2017-12-27T01:29:31.113Z,4.67
2017-12-27T01:30:25.631Z,4.67
2017-12-27T01:31:25.825Z,4.68
2017-12-27T01:34:25.858Z,4.67
2017-12-27T01:35:26.029Z,4.66
2017-12-27T01:36:25.613Z,4.66
2017-12-27T01:37:25.605Z,4.66
2017-12-27T01:38:25.611Z,4.66
2017-12-27T01:39:25.583Z,4.67
2017-12-27T01:40:25.547Z,4.65
2017-12-27T01:41:25.668Z,4.66
2017-12-27T01:42:25.777Z,4.65
2017-12-27T01:43:25.783Z,4.64
2017-12-27T01:44:25.572Z,4.64
2017-12-27T01:45:25.709Z,4.63
2017-12-27T01:46:25.689Z,4.63
2017-12-27T01:47:25.657Z,4.63
2017-12-27T01:48:26.142Z,4.64
2017-12-27T01:49:28.082Z,4.62
2017-12-27T01:50:25.755Z,4.64
2017-12-27T01:51:26.248Z,4.64
2017-12-27T01:52:26.859Z,4.63
2017-12-27T01:53:25.654Z,4.63
2017-12-27T01:54:26.295Z,4.64
2017-12-27T01:55:25.722Z,4.64
2017-12-27T01:56:27.051Z,4.62
2017-12-27T01:57:25.719Z,4.61
2017-12-27T01:58:25.681Z,4.61
2017-12-27T01:59:27.350Z,4.61
2017-12-27T02:00:25.515Z,4.61
2017-12-27T02:01:25.690Z,4.61
2017-12-27T02:02:25.684Z,4.6
2017-12-27T02:03:25.963Z,4.6
2017-12-27T02:04:25.774Z,4.6
2017-12-27T02:05:26.784Z,4.6
2017-12-27T02:06:25.872Z,4.6
2017-12-27T02:07:25.447Z,4.6
2017-12-27T02:08:25.810Z,4.58
2017-12-27T02:09:25.618Z,4.58
2017-12-27T02:10:26.878Z,4.59
2017-12-27T02:11:25.542Z,4.58
2017-12-27T02:12:28.449Z,4.57
2017-12-27T02:13:27.995Z,4.56
2017-12-27T02:14:29.732Z,4.57
2017-12-27T02:15:25.756Z,4.55
2017-12-27T02:16:25.577Z,4.57
2017-12-27T02:17:28.617Z,4.56
2017-12-27T02:18:25.644Z,4.54
2017-12-27T02:19:25.662Z,4.55
2017-12-27T02:20:25.563Z,4.55
2017-12-27T02:21:28.420Z,4.53
2017-12-27T02:22:28.937Z,4.53
2017-12-27T02:23:26.135Z,4.54
2017-12-27T02:24:25.490Z,4.53
2017-12-27T02:25:25.690Z,4.53
2017-12-27T02:26:26.272Z,4.54
2017-12-27T02:27:26.925Z,4.54
2017-12-27T02:28:27.049Z,4.54
2017-12-27T02:29:28.033Z,4.53
2017-12-27T02:30:26.110Z,4.55
2017-12-27T02:31:26.732Z,4.52
2017-12-27T02:32:25.742Z,4.52
2017-12-27T02:33:25.577Z,4.53
2017-12-27T02:34:25.641Z,4.54
2017-12-27T02:35:25.716Z,4.53
2017-12-27T02:36:25.636Z,4.53
2017-12-27T02:37:25.951Z,4.54
2017-12-27T02:38:25.572Z,4.54
2017-12-27T02:39:26.999Z,4.54
2017-12-27T02:40:27.185Z,4.53
2017-12-27T02:41:25.583Z,4.54
2017-12-27T02:42:26.995Z,4.54
2017-12-27T02:43:26.533Z,4.52
2017-12-27T02:44:26.028Z,4.52
2017-12-27T02:45:25.581Z,4.52
2017-12-27T02:46:25.606Z,4.53
2017-12-27T02:47:25.608Z,4.53
2017-12-27T02:48:25.418Z,4.52
2017-12-27T02:49:26.749Z,4.53
2017-12-27T02:50:26.548Z,4.52
2017-12-27T02:51:26.868Z,4.52
2017-12-27T02:52:25.647Z,4.52
2017-12-27T02:53:28.565Z,4.52
2017-12-27T02:54:26.799Z,4.54
2017-12-27T02:55:25.729Z,4.52
2017-12-27T02:56:25.531Z,4.51
2017-12-27T02:57:25.662Z,4.52
2017-12-27T02:58:26.576Z,4.53
2017-12-27T02:59:27.482Z,4.53
2017-12-27T03:00:26.662Z,4.53
2017-12-27T03:01:29.842Z,4.54
2017-12-27T03:02:26.761Z,4.54
2017-12-27T03:03:25.662Z,4.53
2017-12-27T03:04:25.739Z,4.55
2017-12-27T03:05:25.935Z,4.55
2017-12-27T03:06:28.532Z,4.54
2017-12-27T03:07:25.632Z,4.53
2017-12-27T03:08:25.704Z,4.53
2017-12-27T03:09:25.702Z,4.52
2017-12-27T03:10:25.589Z,4.54
2017-12-27T03:11:28.526Z,4.51
2017-12-27T03:12:26.771Z,4.52
2017-12-27T03:13:25.615Z,4.53
2017-12-27T03:14:25.513Z,4.53
2017-12-27T03:15:25.598Z,4.52
2017-12-27T03:16:25.690Z,4.52
2017-12-27T03:17:25.718Z,4.54
2017-12-27T03:18:30.447Z,4.53
2017-12-27T03:20:25.548Z,4.52
2017-12-27T03:21:25.805Z,4.53
2017-12-27T03:22:27.517Z,4.52
2017-12-27T03:23:28.552Z,4.53
2017-12-27T03:24:26.687Z,4.52
2017-12-27T03:25:25.875Z,4.54
2017-12-27T03:26:27.339Z,4.54
2017-12-27T03:27:28.439Z,4.54
2017-12-27T03:28:28.107Z,4.52
2017-12-27T03:29:26.136Z,4.52
2017-12-27T03:30:25.644Z,4.53
2017-12-27T03:31:25.770Z,4.54
2017-12-27T03:32:26.509Z,4.53
2017-12-27T03:33:27.261Z,4.54
2017-12-27T03:34:26.261Z,4.55
2017-12-27T03:35:25.775Z,4.54
2017-12-27T03:36:26.328Z,4.54
2017-12-27T03:37:25.695Z,4.55
2017-12-27T03:38:28.306Z,4.54
2017-12-27T03:39:27.805Z,4.57
2017-12-27T03:40:27.020Z,4.56
2017-12-27T03:41:28.098Z,4.57
2017-12-27T03:42:27.009Z,4.54
2017-12-27T03:43:26.789Z,4.56
2017-12-27T03:44:28.647Z,4.56
2017-12-27T03:52:10.769Z,4.58
2017-12-27T03:53:30.423Z,4.58
2017-12-27T03:54:42.099Z,4.59
2017-12-27T04:02:25.337Z,4.57
2017-12-27T04:03:22.997Z,4.58
2017-12-27T04:04:22.871Z,4.58
2017-12-27T04:05:23.038Z,4.57
2017-12-27T04:06:23.066Z,4.59
2017-12-27T04:07:23.006Z,4.59
2017-12-27T04:08:22.921Z,4.58
2017-12-27T04:09:22.879Z,4.58
2017-12-27T04:10:23.040Z,4.59
2017-12-27T04:11:23.085Z,4.6
2017-12-27T04:12:23.240Z,4.59
2017-12-27T04:13:22.839Z,4.59
2017-12-27T04:14:22.721Z,4.6
2017-12-27T04:15:23.355Z,4.59
2017-12-27T04:16:22.932Z,4.6
2017-12-27T04:17:22.516Z,4.59
2017-12-27T04:18:22.583Z,4.61
2017-12-27T04:19:23.014Z,4.61
2017-12-27T04:20:22.482Z,4.62
2017-12-27T04:21:22.984Z,4.61
2017-12-27T04:22:23.532Z,4.6
2017-12-27T04:23:23.346Z,4.62
2017-12-27T04:24:22.505Z,4.62
2017-12-27T04:25:23.047Z,4.61
2017-12-27T04:26:22.726Z,4.62
2017-12-27T04:27:22.677Z,4.63
2017-12-27T04:28:23.463Z,4.62
2017-12-27T04:29:22.946Z,4.63
2017-12-27T04:30:22.764Z,4.64
2017-12-27T04:31:22.951Z,4.63
2017-12-27T04:32:22.990Z,4.63
2017-12-27T04:33:23.084Z,4.66
2017-12-27T04:34:23.177Z,4.65
2017-12-27T04:35:23.129Z,4.63
2017-12-27T04:36:23.160Z,4.64
2017-12-27T04:37:22.526Z,4.64
2017-12-27T04:38:23.218Z,4.63
2017-12-27T04:39:23.417Z,4.64
2017-12-27T04:40:23.177Z,4.64
2017-12-27T04:41:23.183Z,4.63
2017-12-27T04:42:23.119Z,4.63
2017-12-27T04:43:22.508Z,4.63
2017-12-27T04:44:22.940Z,4.63
2017-12-27T04:45:22.975Z,4.63
2017-12-27T04:46:23.113Z,4.64
2017-12-27T04:47:22.968Z,4.64
2017-12-27T04:48:23.071Z,4.64
2017-12-27T04:49:22.985Z,4.64
2017-12-27T04:50:22.992Z,4.65
2017-12-27T04:51:23.102Z,4.64
2017-12-27T04:52:23.169Z,4.64
2017-12-27T04:53:23.120Z,4.65
2017-12-27T04:54:22.497Z,4.63
2017-12-27T04:55:23.135Z,4.64
2017-12-27T04:56:22.988Z,4.65
2017-12-27T04:57:23.191Z,4.64
2017-12-27T04:58:23.206Z,4.65
2017-12-27T04:59:22.558Z,4.66
2017-12-27T05:00:23.165Z,4.66
2017-12-27T05:01:22.987Z,4.65
2017-12-27T05:02:23.055Z,4.66
2017-12-27T05:03:23.131Z,4.69
2017-12-27T05:04:23.091Z,4.66
2017-12-27T05:05:22.530Z,4.67
2017-12-27T05:06:22.621Z,4.68
2017-12-27T05:07:23.174Z,4.67
2017-12-27T05:08:23.049Z,4.68
2017-12-27T05:09:23.127Z,4.66
2017-12-27T05:10:23.482Z,4.68
2017-12-27T05:11:23.156Z,4.68
2017-12-27T05:12:23.332Z,4.68
2017-12-27T05:13:23.195Z,4.68
2017-12-27T05:14:23.152Z,4.69
2017-12-27T05:15:23.211Z,4.68
2017-12-27T05:16:23.045Z,4.68
2017-12-27T05:17:23.102Z,4.7
2017-12-27T05:18:23.136Z,4.69
2017-12-27T05:19:22.992Z,4.71
2017-12-27T05:20:22.926Z,4.71
2017-12-27T05:21:23.299Z,4.71
2017-12-27T05:22:23.077Z,4.7
2017-12-27T05:23:22.808Z,4.71
2017-12-27T05:24:23.046Z,4.72
2017-12-27T05:25:23.110Z,4.71
2017-12-27T05:26:23.231Z,4.71
2017-12-27T05:27:22.895Z,4.71
2017-12-27T05:28:23.106Z,4.71
2017-12-27T05:29:22.739Z,4.73
2017-12-27T05:30:23.258Z,4.73
2017-12-27T05:31:22.782Z,4.72
2017-12-27T05:32:23.167Z,4.71
2017-12-27T05:33:23.062Z,4.71
2017-12-27T05:34:23.148Z,4.69
2017-12-27T05:35:23.115Z,4.7
2017-12-27T05:36:23.226Z,4.71
2017-12-27T05:37:23.243Z,4.69
2017-12-27T05:38:23.205Z,4.7
2017-12-27T05:39:23.072Z,4.72
2017-12-27T05:40:23.170Z,4.71
2017-12-27T05:41:23.055Z,4.71
2017-12-27T05:42:23.056Z,4.71
2017-12-27T05:43:23.172Z,4.71
2017-12-27T05:44:23.230Z,4.71
2017-12-27T05:45:23.096Z,4.73
2017-12-27T05:46:23.072Z,4.73
2017-12-27T05:47:23.234Z,4.71
2017-12-27T05:48:23.270Z,4.71
2017-12-27T05:49:23.127Z,4.7
2017-12-27T05:50:23.140Z,4.72
2017-12-27T05:51:23.109Z,4.72
2017-12-27T05:52:23.514Z,4.72
2017-12-27T05:53:23.138Z,4.73
2017-12-27T05:54:23.455Z,4.73
2017-12-27T05:55:23.006Z,4.75
2017-12-27T05:56:22.631Z,4.74
2017-12-27T05:57:23.144Z,4.73
2017-12-27T05:58:23.014Z,4.75
2017-12-27T05:59:22.844Z,4.74
2017-12-27T06:00:23.244Z,4.74
2017-12-27T06:01:23.219Z,4.75
2017-12-27T06:02:23.075Z,4.76
2017-12-27T06:03:23.225Z,4.73
2017-12-27T06:04:23.387Z,4.74
2017-12-27T06:05:23.104Z,4.75
2017-12-27T06:06:24.048Z,4.75
2017-12-27T06:07:23.120Z,4.75
2017-12-27T06:08:22.877Z,4.74
2017-12-27T06:09:23.202Z,4.76
2017-12-27T06:10:23.160Z,4.76
2017-12-27T06:11:24.011Z,4.76
2017-12-27T06:12:23.536Z,4.76
2017-12-27T06:13:23.173Z,4.78
2017-12-27T06:14:23.146Z,4.77
2017-12-27T06:15:23.600Z,4.78
2017-12-27T06:16:23.009Z,4.78
2017-12-27T06:17:23.106Z,4.8
2017-12-27T06:18:23.280Z,4.8
2017-12-27T06:19:23.098Z,4.8
2017-12-27T06:20:23.364Z,4.83
2017-12-27T06:21:23.236Z,4.83
2017-12-27T06:22:23.606Z,4.8
2017-12-27T06:23:23.204Z,4.85
2017-12-27T06:24:23.553Z,4.83
2017-12-27T06:25:23.389Z,4.82
2017-12-27T06:26:23.131Z,4.82
2017-12-27T06:27:23.279Z,4.84
2017-12-27T06:28:23.236Z,4.85
2017-12-27T06:29:23.127Z,4.87
2017-12-27T06:30:23.419Z,4.88
2017-12-27T06:31:23.201Z,4.89
2017-12-27T06:32:23.172Z,4.89
2017-12-27T06:33:23.428Z,4.89
2017-12-27T06:34:23.245Z,4.95
2017-12-27T06:35:22.755Z,4.95
2017-12-27T06:36:23.338Z,4.98
2017-12-27T06:37:23.099Z,4.98
2017-12-27T06:38:23.272Z,4.98
2017-12-27T06:39:23.108Z,4.96
2017-12-27T06:40:23.371Z,5
2017-12-27T06:41:23.171Z,5
2017-12-27T06:42:23.001Z,5
2017-12-27T06:43:23.416Z,4.97
2017-12-27T06:44:23.415Z,5
2017-12-27T06:45:23.454Z,5.02
2017-12-27T06:46:23.393Z,5.06
2017-12-27T06:47:23.265Z,5
2017-12-27T06:48:23.343Z,5.01
2017-12-27T06:49:22.927Z,4.97
2017-12-27T06:50:23.255Z,5.05
2017-12-27T06:51:23.629Z,5.02
2017-12-27T06:52:23.363Z,4.98
2017-12-27T06:53:23.498Z,4.97
2017-12-27T06:54:23.461Z,5.02
2017-12-27T06:55:22.921Z,4.98
2017-12-27T06:56:23.429Z,5.02
2017-12-27T06:57:23.529Z,5.03
2017-12-27T06:58:23.724Z,5.05
2017-12-27T06:59:23.335Z,5.08
2017-12-27T07:00:23.184Z,5.03
2017-12-27T07:01:23.260Z,5.05
2017-12-27T07:02:23.370Z,5.07
2017-12-27T07:03:23.592Z,5.04
2017-12-27T07:04:23.249Z,5.08
2017-12-27T07:05:23.469Z,5.03
2017-12-27T07:06:23.670Z,5.06
2017-12-27T07:07:23.420Z,5.05
2017-12-27T07:08:23.252Z,5.06
2017-12-27T07:09:23.502Z,5.07
2017-12-27T07:10:23.469Z,5.04
2017-12-27T07:11:23.345Z,5.07
2017-12-27T07:12:23.556Z,5.09
2017-12-27T07:13:23.588Z,5.07
2017-12-27T07:14:23.540Z,5.06
2017-12-27T07:15:23.410Z,5.06
2017-12-27T07:16:23.517Z,5.09
2017-12-27T07:17:23.327Z,5.11
2017-12-27T07:18:23.408Z,5.12
2017-12-27T07:19:23.249Z,5.06
2017-12-27T07:20:23.108Z,5.08
2017-12-27T07:21:22.903Z,5.09
2017-12-27T07:22:23.430Z,5.07
2017-12-27T07:23:23.163Z,5.09
2017-12-27T07:24:23.168Z,5.11
2017-12-27T07:25:22.949Z,5.11
2017-12-27T07:26:23.264Z,5.05
2017-12-27T07:27:23.268Z,5.11
2017-12-27T07:28:22.919Z,5.1
2017-12-27T07:29:24.045Z,5.1
2017-12-27T07:30:23.155Z,5.12
2017-12-27T07:31:23.345Z,5.11
2017-12-27T07:32:23.122Z,5.12
2017-12-27T07:33:23.366Z,5.1
2017-12-27T07:34:23.431Z,5.07
2017-12-27T07:35:23.623Z,5.11
2017-12-27T07:36:23.487Z,5.15
2017-12-27T07:37:23.408Z,5.11
2017-12-27T07:38:23.518Z,5.11
2017-12-27T07:39:23.145Z,5.11
2017-12-27T07:40:23.304Z,5.11
2017-12-27T07:41:23.342Z,5.1
2017-12-27T07:42:23.257Z,5.11
2017-12-27T07:43:23.347Z,5.1
2017-12-27T07:44:23.302Z,5.11
2017-12-27T07:45:23.320Z,5.1
2017-12-27T07:46:23.495Z,5.12
2017-12-27T07:47:23.327Z,5.08
2017-12-27T07:48:23.301Z,5.12
2017-12-27T07:49:23.178Z,5.1
2017-12-27T07:50:23.574Z,5.1
2017-12-27T07:51:23.325Z,5.08
2017-12-27T07:52:23.590Z,5.07
2017-12-27T07:53:23.372Z,5.06
2017-12-27T07:54:23.110Z,5.11
2017-12-27T07:55:23.305Z,5.1
2017-12-27T07:56:23.256Z,5.12
2017-12-27T07:57:23.294Z,5.08
2017-12-27T07:58:23.263Z,5.08
2017-12-27T07:59:23.342Z,5.11
2017-12-27T08:00:23.439Z,5.09
2017-12-27T08:01:23.144Z,5.12
2017-12-27T08:02:23.625Z,5.12
2017-12-27T08:03:23.172Z,5.1
2017-12-27T08:04:23.264Z,5.11
2017-12-27T08:05:23.243Z,5.1
2017-12-27T08:06:23.572Z,5.1
2017-12-27T08:07:23.637Z,5.13
2017-12-27T08:08:23.918Z,5.11
2017-12-27T08:09:23.366Z,5.09
2017-12-27T08:10:23.399Z,5.1
2017-12-27T08:11:23.655Z,5.1
2017-12-27T08:12:23.237Z,5.08
2017-12-27T08:13:23.695Z,5.07
2017-12-27T08:14:23.188Z,5.12
2017-12-27T08:15:23.446Z,5.09
2017-12-27T08:16:23.308Z,5.12
2017-12-27T08:17:23.213Z,5.11
2017-12-27T08:18:23.384Z,5.11
2017-12-27T08:19:23.311Z,5.1
2017-12-27T08:20:23.437Z,5.12
2017-12-27T08:21:23.311Z,5.09
2017-12-27T08:22:22.914Z,5.12
2017-12-27T08:23:23.322Z,5.15
2017-12-27T08:24:23.263Z,5.17
2017-12-27T08:25:23.645Z,5.12
2017-12-27T08:26:23.643Z,5.15
2017-12-27T08:27:23.253Z,5.16
2017-12-27T08:28:23.404Z,5.19
2017-12-27T08:29:23.483Z,5.16
2017-12-27T08:32:37.506Z,5.18
2017-12-27T08:33:23.425Z,5.14
2017-12-27T08:34:23.581Z,5.14
2017-12-27T08:35:23.409Z,5.2
2017-12-27T08:36:22.277Z,5.15
2017-12-27T08:37:22.540Z,5.16
2017-12-27T08:38:22.734Z,5.19
2017-12-27T08:39:22.370Z,5.19
2017-12-27T08:40:22.258Z,5.17
2017-12-27T08:41:22.454Z,5.19
2017-12-27T08:42:22.509Z,5.18
2017-12-27T08:43:23.073Z,5.18
2017-12-27T08:44:22.432Z,5.18
2017-12-27T08:45:22.740Z,5.18
2017-12-27T08:46:22.534Z,5.17
2017-12-27T08:47:22.482Z,5.14
2017-12-27T08:48:22.347Z,5.2
2017-12-27T08:49:22.264Z,5.2
2017-12-27T08:50:22.455Z,5.17
2017-12-27T08:51:22.405Z,5.21
2017-12-27T08:52:23.116Z,5.19
2017-12-27T08:53:22.161Z,5.22
2017-12-27T08:54:22.178Z,5.19
2017-12-27T08:55:22.606Z,5.23
2017-12-27T08:56:22.251Z,5.2
2017-12-27T08:57:22.216Z,5.23
2017-12-27T08:58:22.397Z,5.23
2017-12-27T08:59:22.389Z,5.22
2017-12-27T09:00:22.356Z,5.21
2017-12-27T09:01:22.252Z,5.25
2017-12-27T09:02:22.268Z,5.23
2017-12-27T09:03:22.475Z,5.25
2017-12-27T09:04:22.438Z,5.23
2017-12-27T09:05:22.532Z,5.23
2017-12-27T09:06:22.364Z,5.29
2017-12-27T09:07:22.496Z,5.27
2017-12-27T09:08:22.491Z,5.26
2017-12-27T09:09:22.487Z,5.26
2017-12-27T09:10:22.328Z,5.22
2017-12-27T09:11:22.355Z,5.3
2017-12-27T09:12:22.424Z,5.3
2017-12-27T09:13:22.509Z,5.29
2017-12-27T09:14:22.233Z,5.29
2017-12-27T09:15:22.541Z,5.28
2017-12-27T09:16:22.468Z,5.27
2017-12-27T09:17:22.449Z,5.29
2017-12-27T09:18:22.265Z,5.26
2017-12-27T09:19:22.627Z,5.28
2017-12-27T09:20:23.590Z,5.26
2017-12-27T09:21:22.363Z,5.28
2017-12-27T09:22:22.232Z,5.25
2017-12-27T09:23:22.297Z,5.26
2017-12-27T09:24:22.371Z,5.26
2017-12-27T09:25:22.301Z,5.25
2017-12-27T09:26:22.603Z,5.26
2017-12-27T09:27:22.289Z,5.29
2017-12-27T09:28:22.261Z,5.27
2017-12-27T09:29:22.423Z,5.27
2017-12-27T09:30:22.523Z,5.28
2017-12-27T09:31:22.370Z,5.27
2017-12-27T09:32:22.426Z,5.29
2017-12-27T09:33:22.351Z,5.28
2017-12-27T09:34:22.248Z,5.29
2017-12-27T09:35:22.392Z,5.27
2017-12-27T09:36:22.480Z,5.29
2017-12-27T09:37:22.320Z,5.29
2017-12-27T09:38:22.342Z,5.28
2017-12-27T09:39:22.413Z,5.33
2017-12-27T09:40:22.329Z,5.34
2017-12-27T09:41:22.388Z,5.33
2017-12-27T09:42:22.419Z,5.34
2017-12-27T09:43:22.451Z,5.36
2017-12-27T09:44:22.375Z,5.33
2017-12-27T09:45:22.279Z,5.38
2017-12-27T09:46:22.365Z,5.39
2017-12-27T09:47:22.476Z,5.37
2017-12-27T09:48:22.434Z,5.35
2017-12-27T09:49:22.144Z,5.39
2017-12-27T09:50:22.383Z,5.38
2017-12-27T09:51:22.391Z,5.43
2017-12-27T09:52:22.396Z,5.37
2017-12-27T09:53:22.551Z,5.33
2017-12-27T09:54:22.397Z,5.38
2017-12-27T09:55:22.564Z,5.38
2017-12-27T09:56:22.218Z,5.34
2017-12-27T09:57:22.383Z,5.4
2017-12-27T09:58:22.259Z,5.41
2017-12-27T09:59:22.285Z,5.39
2017-12-27T10:00:22.380Z,5.4
2017-12-27T10:01:22.241Z,5.41
2017-12-27T10:02:22.455Z,5.4
2017-12-27T10:03:22.363Z,5.43
2017-12-27T10:04:22.149Z,5.44
2017-12-27T10:05:22.178Z,5.46
2017-12-27T10:06:22.364Z,5.45
2017-12-27T10:07:22.225Z,5.48
2017-12-27T10:08:22.342Z,5.47
2017-12-27T10:09:22.351Z,5.5
2017-12-27T10:10:22.340Z,5.45
2017-12-27T10:11:22.294Z,5.5
2017-12-27T10:12:22.313Z,5.51
2017-12-27T10:13:22.503Z,5.45
2017-12-27T10:14:22.416Z,5.47
2017-12-27T10:15:22.326Z,5.48
2017-12-27T10:16:22.328Z,5.51
2017-12-27T10:17:22.306Z,5.53
2017-12-27T10:18:22.465Z,5.47
2017-12-27T10:19:22.471Z,5.5
2017-12-27T10:20:22.361Z,5.5
2017-12-27T10:21:22.240Z,5.49
2017-12-27T10:22:22.386Z,5.53
2017-12-27T10:23:22.391Z,5.48
2017-12-27T10:24:22.317Z,5.48
2017-12-27T10:25:22.440Z,5.46
2017-12-27T10:26:22.266Z,5.49
2017-12-27T10:27:22.357Z,5.47
2017-12-27T10:28:22.349Z,5.49
2017-12-27T10:29:22.404Z,5.5
2017-12-27T10:30:22.564Z,5.51
2017-12-27T10:31:22.325Z,5.43
2017-12-27T10:32:22.223Z,5.46
2017-12-27T10:33:22.377Z,5.44
2017-12-27T10:34:22.397Z,5.44
2017-12-27T10:35:22.305Z,5.46
2017-12-27T10:36:22.230Z,5.44
2017-12-27T10:37:22.320Z,5.41
2017-12-27T10:38:22.291Z,5.46
2017-12-27T10:39:22.314Z,5.46
2017-12-27T10:40:22.445Z,5.45
2017-12-27T10:41:22.329Z,5.44
2017-12-27T10:42:22.359Z,5.5
2017-12-27T10:43:22.427Z,5.51
2017-12-27T10:44:22.269Z,5.51
2017-12-27T10:45:22.494Z,5.5
2017-12-27T10:46:22.469Z,5.43
2017-12-27T10:47:22.461Z,5.47
2017-12-27T10:48:22.396Z,5.48
2017-12-27T10:49:22.368Z,5.5
2017-12-27T10:50:22.326Z,5.44
2017-12-27T10:51:22.399Z,5.46
2017-12-27T10:52:22.400Z,5.46
2017-12-27T10:53:22.454Z,5.49
2017-12-27T10:54:22.446Z,5.43
2017-12-27T10:55:22.518Z,5.5
2017-12-27T10:56:22.299Z,5.43
2017-12-27T10:57:22.448Z,5.44
2017-12-27T10:58:22.529Z,5.5
2017-12-27T10:59:22.556Z,5.47
2017-12-27T11:00:22.400Z,5.39
2017-12-27T11:01:22.484Z,5.43
2017-12-27T11:02:22.430Z,5.45
2017-12-27T11:03:22.449Z,5.41
2017-12-27T11:04:22.429Z,5.4
2017-12-27T11:05:22.436Z,5.4
2017-12-27T11:06:22.617Z,5.45
2017-12-27T11:07:22.472Z,5.41
2017-12-27T11:08:22.369Z,5.41
2017-12-27T11:09:22.484Z,5.45
2017-12-27T11:10:22.351Z,5.48
2017-12-27T11:11:22.389Z,5.45
2017-12-27T11:12:22.400Z,5.45
2017-12-27T11:13:22.407Z,5.45
2017-12-27T11:14:22.474Z,5.49
2017-12-27T11:15:22.450Z,5.46
2017-12-27T11:16:22.514Z,5.49
2017-12-27T11:17:22.393Z,5.49
2017-12-27T11:18:22.467Z,5.49
2017-12-27T11:19:22.368Z,5.53
2017-12-27T11:20:22.458Z,5.54
2017-12-27T11:21:22.532Z,5.51
2017-12-27T11:22:22.364Z,5.51
2017-12-27T11:23:22.384Z,5.51
2017-12-27T11:24:22.514Z,5.53
2017-12-27T11:25:22.374Z,5.5
2017-12-27T11:26:22.596Z,5.52
2017-12-27T11:27:22.412Z,5.52
2017-12-27T11:28:22.300Z,5.53
2017-12-27T11:29:22.429Z,5.51
2017-12-27T11:30:22.582Z,5.5
2017-12-27T11:31:22.526Z,5.53
2017-12-27T11:32:22.432Z,5.55
2017-12-27T11:33:22.533Z,5.56
2017-12-27T11:34:22.513Z,5.56
2017-12-27T11:35:22.420Z,5.56
2017-12-27T11:36:22.517Z,5.58
2017-12-27T11:37:22.581Z,5.54
2017-12-27T11:38:22.407Z,5.57
2017-12-27T11:39:22.373Z,5.55
2017-12-27T11:40:22.499Z,5.58
2017-12-27T11:41:22.554Z,5.58
2017-12-27T11:42:22.552Z,5.54
2017-12-27T11:43:22.470Z,5.54
2017-12-27T11:44:22.446Z,5.54
2017-12-27T12:39:22.859Z,5.81
2017-12-27T12:40:22.821Z,5.74
2017-12-27T12:41:22.710Z,5.75
2017-12-27T12:42:22.838Z,5.72
2017-12-27T12:43:23.040Z,5.76
2017-12-27T12:44:25.198Z,5.72
2017-12-27T12:45:22.860Z,5.73
2017-12-27T12:46:22.758Z,5.76
2017-12-27T12:47:22.760Z,5.73
2017-12-27T12:48:22.883Z,5.77
2017-12-27T12:49:22.622Z,5.79
2017-12-27T12:50:22.727Z,5.79
2017-12-27T12:51:22.775Z,5.77
2017-12-27T12:52:22.810Z,5.81
2017-12-27T12:53:22.738Z,5.79
2017-12-27T12:54:22.928Z,5.8
2017-12-27T12:55:22.664Z,5.86
2017-12-27T12:56:22.847Z,5.87
2017-12-27T12:57:22.845Z,5.9
2017-12-27T12:58:22.749Z,5.86
2017-12-27T12:59:22.762Z,5.86
2017-12-27T13:00:23.132Z,5.82
2017-12-27T13:01:22.870Z,5.89
2017-12-27T13:02:22.804Z,5.9
2017-12-27T13:03:23.811Z,5.85
2017-12-27T13:04:22.792Z,5.89
2017-12-27T13:05:22.919Z,5.96
2017-12-27T13:06:22.803Z,5.93
2017-12-27T13:07:23.846Z,5.91
2017-12-27T13:08:22.791Z,5.99
2017-12-27T13:09:22.900Z,5.91
2017-12-27T13:10:22.677Z,5.95
2017-12-27T13:11:22.950Z,5.96
2017-12-27T13:12:22.845Z,5.96
2017-12-27T13:13:23.518Z,5.98
2017-12-27T13:14:23.729Z,6
2017-12-27T13:15:23.669Z,6.03
2017-12-27T13:16:22.797Z,6.01
2017-12-27T13:17:22.743Z,6.01
2017-12-27T13:18:22.904Z,6.04
2017-12-27T13:19:22.683Z,6.08
2017-12-27T13:20:22.792Z,6.07
2017-12-27T13:21:23.021Z,6.05
2017-12-27T13:22:22.786Z,6.04
2017-12-27T13:23:22.736Z,6.07
2017-12-27T13:24:22.749Z,6.05
2017-12-27T13:25:22.878Z,6.07
2017-12-27T13:26:23.043Z,6.11
2017-12-27T13:27:22.832Z,6.11
2017-12-27T13:28:23.236Z,6.12
2017-12-27T13:29:22.949Z,6.12
2017-12-27T13:30:22.837Z,6.06
2017-12-27T13:31:22.891Z,6.11
2017-12-27T13:32:22.776Z,6.1
2017-12-27T13:33:23.014Z,6.06
2017-12-27T13:34:23.060Z,6.1
2017-12-27T13:35:22.834Z,6.14
2017-12-27T13:36:24.048Z,6.13
2017-12-27T13:37:22.931Z,6.13
2017-12-27T13:38:22.781Z,6.13
2017-12-27T13:39:22.773Z,6.13
2017-12-27T13:40:22.904Z,6.16
2017-12-27T13:41:22.871Z,6.12
2017-12-27T13:42:23.128Z,6.14
2017-12-27T13:43:22.819Z,6.15
2017-12-27T13:44:22.757Z,6.15
2017-12-27T13:45:22.992Z,6.15
2017-12-27T13:46:22.810Z,6.14
2017-12-27T13:47:23.091Z,6.14
2017-12-27T13:48:22.961Z,6.12
2017-12-27T13:49:22.970Z,6.12
2017-12-27T13:50:22.920Z,6.12
2017-12-27T13:51:26.592Z,6.12
2017-12-27T13:52:22.918Z,6.11
2017-12-27T13:53:22.804Z,6.11
2017-12-27T13:54:23.078Z,6.1
2017-12-27T13:55:22.835Z,6.1
2017-12-27T13:56:22.892Z,6.08
2017-12-27T13:57:22.935Z,6.1
2017-12-27T13:58:22.930Z,6.07
2017-12-27T13:59:23.077Z,6.07
2017-12-27T14:00:23.059Z,6.06
2017-12-27T14:01:23.010Z,6.06
2017-12-27T14:02:22.921Z,6.06
2017-12-27T14:03:23.008Z,6.04
2017-12-27T14:04:23.543Z,6.08
2017-12-27T14:05:24.075Z,6.05
2017-12-27T14:06:23.148Z,6.04
2017-12-27T14:07:24.060Z,6.03
2017-12-27T14:08:22.984Z,6.05
2017-12-27T14:09:23.101Z,6.04
2017-12-27T14:10:22.989Z,6.04
2017-12-27T14:11:24.297Z,6.02
2017-12-27T14:12:23.071Z,6
2017-12-27T14:13:22.956Z,5.99
2017-12-27T14:14:23.094Z,5.97
2017-12-27T14:15:23.146Z,5.96
2017-12-27T14:16:23.750Z,5.97
2017-12-27T14:17:22.924Z,5.99
2017-12-27T14:18:23.170Z,5.93
2017-12-27T14:19:23.698Z,5.95
2017-12-27T14:20:23.114Z,5.94
2017-12-27T14:21:23.054Z,5.95
2017-12-27T14:22:23.134Z,5.89
2017-12-27T14:23:24.137Z,5.91
2017-12-27T14:24:23.123Z,5.92
2017-12-27T14:25:23.049Z,5.94
2017-12-27T14:26:22.970Z,5.91
2017-12-27T14:27:23.076Z,5.91
2017-12-27T14:28:22.898Z,5.92
2017-12-27T14:29:22.996Z,5.92
2017-12-27T14:30:24.198Z,5.91
2017-12-27T14:31:23.172Z,5.89
2017-12-27T14:32:23.267Z,5.88
2017-12-27T14:35:23.041Z,5.87
2017-12-27T14:36:25.479Z,5.92